sensor_id;sensor_type;location;lat;lon;timestamp;pressure;altitude;pressure_sealevel;temperature;humidity
73151;BME280;61354;50.758;6.106;2023-07-29T00:01:31;98378.03;;;18.23;100.00
73151;BME280;61354;50.758;6.106;2023-07-29T00:03:57;98372.78;;;18.25;100.00
73151;BME280;61354;50.758;6.106;2023-07-29T00:06:23;98371.19;;;18.24;100.00
73151;BME280;61354;50.758;6.106;2023-07-29T00:08:49;98382.44;;;18.24;100.00
73151;BME280;61354;50.758;6.106;2023-07-29T00:11:15;98379.63;;;18.24;100.00
73151;BME280;61354;50.758;6.106;2023-07-29T00:13:40;98374.38;;;18.26;100.00
73151;BME280;61354;50.758;6.106;2023-07-29T00:16:06;98374.72;;;18.28;100.00
73151;BME280;61354;50.758;6.106;2023-07-29T00:18:31;98372.28;;;18.30;100.00
73151;BME280;61354;50.758;6.106;2023-07-29T00:20:58;98379.50;;;18.31;100.00
73151;BME280;61354;50.758;6.106;2023-07-29T00:23:23;98367.47;;;18.30;100.00
73151;BME280;61354;50.758;6.106;2023-07-29T00:25:49;98375.47;;;18.32;100.00
73151;BME280;61354;50.758;6.106;2023-07-29T00:28:14;98374.66;;;18.31;100.00
73151;BME280;61354;50.758;6.106;2023-07-29T00:30:40;98376.69;;;18.31;100.00
73151;BME280;61354;50.758;6.106;2023-07-29T00:33:06;98377.91;;;18.30;100.00
73151;BME280;61354;50.758;6.106;2023-07-29T00:35:31;98371.06;;;18.31;100.00
73151;BME280;61354;50.758;6.106;2023-07-29T00:37:57;98365.16;;;18.25;100.00
73151;BME280;61354;50.758;6.106;2023-07-29T00:40:23;98370.41;;;18.23;100.00
73151;BME280;61354;50.758;6.106;2023-07-29T00:42:49;98372.34;;;18.26;100.00
73151;BME280;61354;50.758;6.106;2023-07-29T00:45:16;98360.31;;;18.26;100.00
73151;BME280;61354;50.758;6.106;2023-07-29T00:47:42;98376.81;;;18.24;100.00
73151;BME280;61354;50.758;6.106;2023-07-29T00:50:13;98366.06;;;18.19;100.00
73151;BME280;61354;50.758;6.106;2023-07-29T00:52:40;98365.38;;;18.11;100.00
73151;BME280;61354;50.758;6.106;2023-07-29T00:55:06;98363.00;;;18.09;100.00
73151;BME280;61354;50.758;6.106;2023-07-29T00:57:33;98361.50;;;18.05;100.00
73151;BME280;61354;50.758;6.106;2023-07-29T00:59:59;98359.69;;;17.91;100.00
73151;BME280;61354;50.758;6.106;2023-07-29T01:02:26;98364.84;;;17.96;100.00
73151;BME280;61354;50.758;6.106;2023-07-29T01:04:56;98366.03;;;17.95;100.00
73151;BME280;61354;50.758;6.106;2023-07-29T01:10:11;98373.28;;;17.96;100.00
73151;BME280;61354;50.758;6.106;2023-07-29T01:13:19;98360.88;;;17.94;100.00
73151;BME280;61354;50.758;6.106;2023-07-29T01:16:10;98352.13;;;17.88;100.00
73151;BME280;61354;50.758;6.106;2023-07-29T01:18:38;98349.44;;;17.81;100.00
73151;BME280;61354;50.758;6.106;2023-07-29T01:21:08;98345.41;;;17.82;100.00
73151;BME280;61354;50.758;6.106;2023-07-29T01:23:34;98354.66;;;17.79;100.00
73151;BME280;61354;50.758;6.106;2023-07-29T01:26:02;98361.59;;;17.71;100.00
73151;BME280;61354;50.758;6.106;2023-07-29T01:28:28;98362.59;;;17.57;100.00
73151;BME280;61354;50.758;6.106;2023-07-29T01:31:15;98362.31;;;17.51;100.00
73151;BME280;61354;50.758;6.106;2023-07-29T01:34:15;98367.06;;;17.54;100.00
73151;BME280;61354;50.758;6.106;2023-07-29T01:36:44;98371.13;;;17.50;100.00
73151;BME280;61354;50.758;6.106;2023-07-29T01:39:11;98371.22;;;17.46;100.00
73151;BME280;61354;50.758;6.106;2023-07-29T01:41:37;98370.47;;;17.42;100.00
73151;BME280;61354;50.758;6.106;2023-07-29T01:44:05;98369.97;;;17.47;100.00
73151;BME280;61354;50.758;6.106;2023-07-29T01:46:33;98370.03;;;17.44;100.00
73151;BME280;61354;50.758;6.106;2023-07-29T01:48:59;98372.09;;;17.39;100.00
73151;BME280;61354;50.758;6.106;2023-07-29T01:51:25;98370.91;;;17.37;100.00
73151;BME280;61354;50.758;6.106;2023-07-29T01:53:50;98362.97;;;17.32;100.00
73151;BME280;61354;50.758;6.106;2023-07-29T01:56:16;98358.72;;;17.20;100.00
73151;BME280;61354;50.758;6.106;2023-07-29T01:58:41;98357.00;;;17.30;100.00
73151;BME280;61354;50.758;6.106;2023-07-29T02:01:07;98367.31;;;17.36;100.00
73151;BME280;61354;50.758;6.106;2023-07-29T02:03:32;98364.19;;;17.31;100.00
73151;BME280;61354;50.758;6.106;2023-07-29T02:05:58;98368.97;;;17.34;100.00
73151;BME280;61354;50.758;6.106;2023-07-29T02:08:24;98362.97;;;17.32;100.00
73151;BME280;61354;50.758;6.106;2023-07-29T02:10:49;98363.41;;;17.30;100.00
73151;BME280;61354;50.758;6.106;2023-07-29T02:13:15;98357.84;;;17.27;100.00
73151;BME280;61354;50.758;6.106;2023-07-29T02:15:41;98357.03;;;17.26;100.00
73151;BME280;61354;50.758;6.106;2023-07-29T02:18:06;98350.53;;;17.33;100.00
73151;BME280;61354;50.758;6.106;2023-07-29T02:20:32;98350.53;;;17.33;100.00
73151;BME280;61354;50.758;6.106;2023-07-29T02:22:58;98366.56;;;17.32;100.00
73151;BME280;61354;50.758;6.106;2023-07-29T02:25:23;98355.38;;;17.29;100.00
73151;BME280;61354;50.758;6.106;2023-07-29T02:27:49;98348.09;;;17.35;100.00
73151;BME280;61354;50.758;6.106;2023-07-29T02:30:14;98341.66;;;17.38;100.00
73151;BME280;61354;50.758;6.106;2023-07-29T02:32:40;98336.03;;;17.38;100.00
73151;BME280;61354;50.758;6.106;2023-07-29T02:35:06;98339.19;;;17.40;100.00
73151;BME280;61354;50.758;6.106;2023-07-29T02:37:31;98335.66;;;17.36;100.00
73151;BME280;61354;50.758;6.106;2023-07-29T02:39:57;98337.66;;;17.35;100.00
73151;BME280;61354;50.758;6.106;2023-07-29T02:42:22;98339.31;;;17.33;100.00
73151;BME280;61354;50.758;6.106;2023-07-29T02:44:48;98345.00;;;17.29;100.00
73151;BME280;61354;50.758;6.106;2023-07-29T02:47:14;98336.72;;;17.19;100.00
73151;BME280;61354;50.758;6.106;2023-07-29T02:49:39;98339.41;;;17.26;100.00
73151;BME280;61354;50.758;6.106;2023-07-29T02:52:05;98338.69;;;17.22;100.00
73151;BME280;61354;50.758;6.106;2023-07-29T02:54:30;98342.75;;;17.17;100.00
73151;BME280;61354;50.758;6.106;2023-07-29T02:56:56;98341.13;;;17.16;100.00
73151;BME280;61354;50.758;6.106;2023-07-29T02:59:21;98339.13;;;17.17;100.00
73151;BME280;61354;50.758;6.106;2023-07-29T03:01:47;98343.59;;;17.14;100.00
73151;BME280;61354;50.758;6.106;2023-07-29T03:04:13;98336.78;;;17.11;100.00
73151;BME280;61354;50.758;6.106;2023-07-29T03:06:38;98334.00;;;17.11;100.00
73151;BME280;61354;50.758;6.106;2023-07-29T03:09:04;98338.81;;;17.11;100.00
73151;BME280;61354;50.758;6.106;2023-07-29T03:11:30;98330.81;;;17.09;100.00
73151;BME280;61354;50.758;6.106;2023-07-29T03:13:56;98326.00;;;17.10;100.00
73151;BME280;61354;50.758;6.106;2023-07-29T03:16:22;98330.06;;;17.05;100.00
73151;BME280;61354;50.758;6.106;2023-07-29T03:18:48;98337.28;;;17.06;100.00
73151;BME280;61354;50.758;6.106;2023-07-29T03:21:14;98342.19;;;16.99;100.00
73151;BME280;61354;50.758;6.106;2023-07-29T03:23:40;98341.81;;;16.97;100.00
73151;BME280;61354;50.758;6.106;2023-07-29T03:26:06;98335.03;;;16.94;100.00
73151;BME280;61354;50.758;6.106;2023-07-29T03:28:41;98343.09;;;16.92;100.00
73151;BME280;61354;50.758;6.106;2023-07-29T03:31:07;98353.59;;;16.84;100.00
73151;BME280;61354;50.758;6.106;2023-07-29T03:33:33;98350.75;;;16.88;100.00
73151;BME280;61354;50.758;6.106;2023-07-29T03:35:59;98351.94;;;16.87;100.00
73151;BME280;61354;50.758;6.106;2023-07-29T03:38:24;98344.66;;;16.93;100.00
73151;BME280;61354;50.758;6.106;2023-07-29T03:40:50;98341.06;;;16.93;100.00
73151;BME280;61354;50.758;6.106;2023-07-29T03:43:16;98336.28;;;16.89;100.00
73151;BME280;61354;50.758;6.106;2023-07-29T03:45:42;98347.19;;;16.84;100.00
73151;BME280;61354;50.758;6.106;2023-07-29T03:48:08;98350.44;;;16.79;100.00
73151;BME280;61354;50.758;6.106;2023-07-29T03:50:35;98359.31;;;16.74;100.00
73151;BME280;61354;50.758;6.106;2023-07-29T03:53:01;98361.22;;;16.84;100.00
73151;BME280;61354;50.758;6.106;2023-07-29T03:55:27;98363.25;;;16.80;100.00
73151;BME280;61354;50.758;6.106;2023-07-29T03:57:56;98364.91;;;16.74;100.00
73151;BME280;61354;50.758;6.106;2023-07-29T04:00:22;98364.09;;;16.77;100.00
73151;BME280;61354;50.758;6.106;2023-07-29T04:02:47;98366.84;;;16.80;100.00
73151;BME280;61354;50.758;6.106;2023-07-29T04:05:13;98367.25;;;16.79;100.00
73151;BME280;61354;50.758;6.106;2023-07-29T04:07:38;98368.41;;;16.85;100.00
73151;BME280;61354;50.758;6.106;2023-07-29T04:10:05;98372.03;;;16.82;100.00
73151;BME280;61354;50.758;6.106;2023-07-29T04:12:31;98370.44;;;16.81;100.00
73151;BME280;61354;50.758;6.106;2023-07-29T04:14:57;98361.50;;;16.93;100.00
73151;BME280;61354;50.758;6.106;2023-07-29T04:17:22;98359.91;;;16.92;100.00
73151;BME280;61354;50.758;6.106;2023-07-29T04:19:48;98365.44;;;16.96;100.00
73151;BME280;61354;50.758;6.106;2023-07-29T04:22:15;98358.25;;;16.95;100.00
73151;BME280;61354;50.758;6.106;2023-07-29T04:24:41;98348.63;;;16.96;100.00
73151;BME280;61354;50.758;6.106;2023-07-29T04:27:06;98355.78;;;17.00;100.00
73151;BME280;61354;50.758;6.106;2023-07-29T04:29:32;98344.94;;;17.02;100.00
73151;BME280;61354;50.758;6.106;2023-07-29T04:31:57;98345.28;;;17.04;100.00
73151;BME280;61354;50.758;6.106;2023-07-29T04:34:23;98350.91;;;17.04;100.00
73151;BME280;61354;50.758;6.106;2023-07-29T04:36:48;98357.28;;;17.08;100.00
73151;BME280;61354;50.758;6.106;2023-07-29T04:39:14;98357.34;;;17.05;100.00
73151;BME280;61354;50.758;6.106;2023-07-29T04:41:40;98360.81;;;17.12;100.00
73151;BME280;61354;50.758;6.106;2023-07-29T04:44:06;98360.38;;;17.18;100.00
73151;BME280;61354;50.758;6.106;2023-07-29T04:46:33;98363.19;;;17.18;100.00
73151;BME280;61354;50.758;6.106;2023-07-29T04:48:58;98352.00;;;17.14;100.00
73151;BME280;61354;50.758;6.106;2023-07-29T04:51:24;98362.03;;;17.11;100.00
73151;BME280;61354;50.758;6.106;2023-07-29T04:53:50;98351.25;;;17.10;100.00
73151;BME280;61354;50.758;6.106;2023-07-29T04:56:15;98361.28;;;17.07;100.00
73151;BME280;61354;50.758;6.106;2023-07-29T04:58:41;98358.84;;;17.13;100.00
73151;BME280;61354;50.758;6.106;2023-07-29T05:01:06;98360.47;;;17.10;100.00
73151;BME280;61354;50.758;6.106;2023-07-29T05:03:32;98370.13;;;17.06;100.00
73151;BME280;61354;50.758;6.106;2023-07-29T05:06:01;98370.84;;;17.13;100.00
73151;BME280;61354;50.758;6.106;2023-07-29T05:08:27;98375.66;;;17.13;100.00
73151;BME280;61354;50.758;6.106;2023-07-29T05:10:53;98378.88;;;17.11;100.00
73151;BME280;61354;50.758;6.106;2023-07-29T05:13:20;98381.31;;;17.09;100.00
73151;BME280;61354;50.758;6.106;2023-07-29T05:15:47;98374.50;;;17.10;100.00
73151;BME280;61354;50.758;6.106;2023-07-29T05:18:13;98382.63;;;17.01;100.00
73151;BME280;61354;50.758;6.106;2023-07-29T05:20:38;98387.38;;;17.04;100.00
73151;BME280;61354;50.758;6.106;2023-07-29T05:23:04;98394.59;;;17.05;100.00
73151;BME280;61354;50.758;6.106;2023-07-29T05:25:29;98392.66;;;16.99;100.00
73151;BME280;61354;50.758;6.106;2023-07-29T05:27:55;98399.53;;;16.94;100.00
73151;BME280;61354;50.758;6.106;2023-07-29T05:30:20;98401.97;;;16.92;100.00
73151;BME280;61354;50.758;6.106;2023-07-29T05:32:46;98399.09;;;16.96;100.00
73151;BME280;61354;50.758;6.106;2023-07-29T05:35:12;98402.34;;;16.94;100.00
73151;BME280;61354;50.758;6.106;2023-07-29T05:37:40;98404.78;;;16.92;100.00
73151;BME280;61354;50.758;6.106;2023-07-29T05:40:07;98416.75;;;16.96;100.00
73151;BME280;61354;50.758;6.106;2023-07-29T05:42:33;98412.63;;;17.04;100.00
73151;BME280;61354;50.758;6.106;2023-07-29T05:44:59;98413.84;;;17.03;100.00
73151;BME280;61354;50.758;6.106;2023-07-29T05:47:24;98420.25;;;17.04;100.00
73151;BME280;61354;50.758;6.106;2023-07-29T05:49:50;98419.03;;;17.05;100.00
73151;BME280;61354;50.758;6.106;2023-07-29T05:52:15;98427.03;;;17.06;100.00
73151;BME280;61354;50.758;6.106;2023-07-29T05:54:41;98423.91;;;17.01;100.00
73151;BME280;61354;50.758;6.106;2023-07-29T05:57:09;98423.84;;;17.04;100.00
73151;BME280;61354;50.758;6.106;2023-07-29T05:59:35;98428.63;;;17.07;100.00
73151;BME280;61354;50.758;6.106;2023-07-29T06:02:00;98434.19;;;17.11;100.00
73151;BME280;61354;50.758;6.106;2023-07-29T06:04:26;98427.78;;;17.10;100.00
73151;BME280;61354;50.758;6.106;2023-07-29T06:06:52;98430.94;;;17.12;100.00
73151;BME280;61354;50.758;6.106;2023-07-29T06:09:18;98422.22;;;17.07;100.00
73151;BME280;61354;50.758;6.106;2023-07-29T06:11:43;98438.19;;;17.13;100.00
73151;BME280;61354;50.758;6.106;2023-07-29T06:14:09;98439.75;;;17.14;100.00
73151;BME280;61354;50.758;6.106;2023-07-29T06:16:34;98446.13;;;17.19;100.00
73151;BME280;61354;50.758;6.106;2023-07-29T06:19:00;98438.53;;;17.15;100.00
73151;BME280;61354;50.758;6.106;2023-07-29T06:21:26;98442.56;;;17.14;100.00
73151;BME280;61354;50.758;6.106;2023-07-29T06:23:51;98434.91;;;17.19;100.00
73151;BME280;61354;50.758;6.106;2023-07-29T06:26:17;98443.41;;;17.11;100.00
73151;BME280;61354;50.758;6.106;2023-07-29T06:28:42;98428.69;;;17.00;100.00
73151;BME280;61354;50.758;6.106;2023-07-29T06:31:08;98426.31;;;16.99;100.00
73151;BME280;61354;50.758;6.106;2023-07-29T06:33:33;98420.19;;;17.07;100.00
73151;BME280;61354;50.758;6.106;2023-07-29T06:35:59;98424.66;;;17.05;100.00
73151;BME280;61354;50.758;6.106;2023-07-29T06:38:25;98429.75;;;17.13;100.00
73151;BME280;61354;50.758;6.106;2023-07-29T06:40:50;98425.72;;;17.14;100.00
73151;BME280;61354;50.758;6.106;2023-07-29T06:43:16;98429.31;;;17.15;100.00
73151;BME280;61354;50.758;6.106;2023-07-29T06:45:42;98433.81;;;17.09;100.00
73151;BME280;61354;50.758;6.106;2023-07-29T06:48:08;98431.84;;;17.06;100.00
73151;BME280;61354;50.758;6.106;2023-07-29T06:50:34;98430.19;;;17.08;100.00
73151;BME280;61354;50.758;6.106;2023-07-29T06:52:59;98446.25;;;17.08;100.00
73151;BME280;61354;50.758;6.106;2023-07-29T06:55:25;98443.03;;;17.09;100.00
73151;BME280;61354;50.758;6.106;2023-07-29T06:57:51;98447.78;;;17.12;100.00
73151;BME280;61354;50.758;6.106;2023-07-29T07:00:16;98452.28;;;17.06;100.00
73151;BME280;61354;50.758;6.106;2023-07-29T07:02:42;98455.09;;;17.06;100.00
73151;BME280;61354;50.758;6.106;2023-07-29T07:05:07;98454.38;;;16.99;100.00
73151;BME280;61354;50.758;6.106;2023-07-29T07:07:33;98450.41;;;16.96;100.00
73151;BME280;61354;50.758;6.106;2023-07-29T07:09:59;98443.09;;;17.02;100.00
73151;BME280;61354;50.758;6.106;2023-07-29T07:12:24;98446.28;;;17.04;100.00
73151;BME280;61354;50.758;6.106;2023-07-29T07:14:50;98443.44;;;17.08;100.00
73151;BME280;61354;50.758;6.106;2023-07-29T07:17:15;98436.19;;;17.10;100.00
73151;BME280;61354;50.758;6.106;2023-07-29T07:19:41;98445.66;;;17.24;100.00
73151;BME280;61354;50.758;6.106;2023-07-29T07:22:07;98445.94;;;17.33;100.00
73151;BME280;61354;50.758;6.106;2023-07-29T07:24:32;98443.31;;;17.49;100.00
73151;BME280;61354;50.758;6.106;2023-07-29T07:26:58;98447.25;;;17.55;100.00
73151;BME280;61354;50.758;6.106;2023-07-29T07:29:23;98455.41;;;17.46;100.00
73151;BME280;61354;50.758;6.106;2023-07-29T07:31:51;98451.38;;;17.47;100.00
73151;BME280;61354;50.758;6.106;2023-07-29T07:34:21;98454.50;;;17.53;100.00
73151;BME280;61354;50.758;6.106;2023-07-29T07:36:46;98464.91;;;17.56;100.00
73151;BME280;61354;50.758;6.106;2023-07-29T07:39:12;98460.38;;;17.62;100.00
73151;BME280;61354;50.758;6.106;2023-07-29T07:41:39;98445.50;;;17.65;100.00
73151;BME280;61354;50.758;6.106;2023-07-29T07:44:04;98453.84;;;17.72;100.00
73151;BME280;61354;50.758;6.106;2023-07-29T07:46:30;98459.03;;;17.74;100.00
73151;BME280;61354;50.758;6.106;2023-07-29T07:48:55;98459.75;;;17.81;100.00
73151;BME280;61354;50.758;6.106;2023-07-29T07:51:21;98465.22;;;17.92;100.00
73151;BME280;61354;50.758;6.106;2023-07-29T07:53:46;98453.47;;;18.01;100.00
73151;BME280;61354;50.758;6.106;2023-07-29T07:56:12;98458.81;;;17.92;100.00
73151;BME280;61354;50.758;6.106;2023-07-29T07:58:38;98454.53;;;17.83;100.00
73151;BME280;61354;50.758;6.106;2023-07-29T08:01:05;98454.94;;;17.82;100.00
73151;BME280;61354;50.758;6.106;2023-07-29T08:03:31;98454.19;;;17.78;100.00
73151;BME280;61354;50.758;6.106;2023-07-29T08:05:57;98458.69;;;17.99;100.00
73151;BME280;61354;50.758;6.106;2023-07-29T08:08:24;98454.34;;;17.94;100.00
73151;BME280;61354;50.758;6.106;2023-07-29T08:10:52;98461.25;;;17.89;100.00
73151;BME280;61354;50.758;6.106;2023-07-29T08:13:17;98462.81;;;17.91;100.00
73151;BME280;61354;50.758;6.106;2023-07-29T08:15:46;98467.56;;;17.97;100.00
73151;BME280;61354;50.758;6.106;2023-07-29T08:18:11;98466.72;;;18.00;100.00
73151;BME280;61354;50.758;6.106;2023-07-29T08:20:37;98468.94;;;18.12;100.00
73151;BME280;61354;50.758;6.106;2023-07-29T08:23:03;98478.75;;;18.01;100.00
73151;BME280;61354;50.758;6.106;2023-07-29T08:25:29;98473.66;;;17.92;100.00
73151;BME280;61354;50.758;6.106;2023-07-29T08:27:55;98466.81;;;17.93;100.00
73151;BME280;61354;50.758;6.106;2023-07-29T08:30:20;98463.75;;;17.84;100.00
73151;BME280;61354;50.758;6.106;2023-07-29T08:32:46;98461.63;;;17.92;100.00
73151;BME280;61354;50.758;6.106;2023-07-29T08:35:11;98466.53;;;18.11;100.00
73151;BME280;61354;50.758;6.106;2023-07-29T08:37:37;98474.59;;;18.09;100.00
73151;BME280;61354;50.758;6.106;2023-07-29T08:40:03;98475.00;;;18.07;100.00
73151;BME280;61354;50.758;6.106;2023-07-29T08:42:31;98477.09;;;18.03;100.00
73151;BME280;61354;50.758;6.106;2023-07-29T08:45:01;98472.19;;;18.07;100.00
73151;BME280;61354;50.758;6.106;2023-07-29T08:47:31;98465.78;;;18.07;100.00
73151;BME280;61354;50.758;6.106;2023-07-29T08:49:58;98470.13;;;18.11;100.00
73151;BME280;61354;50.758;6.106;2023-07-29T08:52:25;98473.69;;;18.16;100.00
73151;BME280;61354;50.758;6.106;2023-07-29T08:54:51;98476.50;;;18.16;100.00
73151;BME280;61354;50.758;6.106;2023-07-29T08:57:19;98480.78;;;18.24;100.00
73151;BME280;61354;50.758;6.106;2023-07-29T08:59:45;98479.19;;;18.23;100.00
73151;BME280;61354;50.758;6.106;2023-07-29T09:02:11;98480.84;;;18.20;100.00
73151;BME280;61354;50.758;6.106;2023-07-29T09:04:37;98483.84;;;18.09;100.00
73151;BME280;61354;50.758;6.106;2023-07-29T09:07:05;98483.44;;;18.07;100.00
73151;BME280;61354;50.758;6.106;2023-07-29T09:09:31;98473.81;;;18.08;100.00
73151;BME280;61354;50.758;6.106;2023-07-29T09:11:57;98481.81;;;18.10;100.00
73151;BME280;61354;50.758;6.106;2023-07-29T09:14:24;98489.25;;;17.97;100.00
73151;BME280;61354;50.758;6.106;2023-07-29T09:16:49;98488.63;;;17.82;100.00
73151;BME280;61354;50.758;6.106;2023-07-29T09:19:15;98491.84;;;17.84;100.00
73151;BME280;61354;50.758;6.106;2023-07-29T09:21:41;98499.50;;;17.80;100.00
73151;BME280;61354;50.758;6.106;2023-07-29T09:24:08;98498.78;;;17.72;100.00
73151;BME280;61354;50.758;6.106;2023-07-29T09:26:34;98494.50;;;17.60;100.00
73151;BME280;61354;50.758;6.106;2023-07-29T09:29:00;98492.88;;;17.63;100.00
73151;BME280;61354;50.758;6.106;2023-07-29T09:31:27;98495.78;;;17.56;100.00
73151;BME280;61354;50.758;6.106;2023-07-29T09:34:01;98494.75;;;17.73;100.00
73151;BME280;61354;50.758;6.106;2023-07-29T09:36:27;98498.34;;;17.74;100.00
73151;BME280;61354;50.758;6.106;2023-07-29T09:38:56;98500.03;;;17.68;100.00
73151;BME280;61354;50.758;6.106;2023-07-29T09:41:23;98499.47;;;17.49;100.00
73151;BME280;61354;50.758;6.106;2023-07-29T09:44:01;98500.41;;;17.39;100.00
73151;BME280;61354;50.758;6.106;2023-07-29T09:46:35;98503.41;;;17.55;100.00
73151;BME280;61354;50.758;6.106;2023-07-29T09:49:05;98501.81;;;17.54;100.00
73151;BME280;61354;50.758;6.106;2023-07-29T09:51:31;98505.09;;;17.46;100.00
73151;BME280;61354;50.758;6.106;2023-07-29T09:53:57;98507.53;;;17.47;100.00
73151;BME280;61354;50.758;6.106;2023-07-29T09:56:27;98513.59;;;17.42;100.00
73151;BME280;61354;50.758;6.106;2023-07-29T09:58:55;98509.94;;;17.45;100.00
73151;BME280;61354;50.758;6.106;2023-07-29T10:01:21;98508.75;;;17.46;100.00
73151;BME280;61354;50.758;6.106;2023-07-29T10:03:47;98508.28;;;17.51;100.00
73151;BME280;61354;50.758;6.106;2023-07-29T10:06:14;98506.13;;;17.62;100.00
73151;BME280;61354;50.758;6.106;2023-07-29T10:08:40;98499.97;;;17.75;100.00
73151;BME280;61354;50.758;6.106;2023-07-29T10:11:08;98505.41;;;17.89;100.00
73151;BME280;61354;50.758;6.106;2023-07-29T10:13:36;98497.94;;;18.06;100.00
73151;BME280;61354;50.758;6.106;2023-07-29T10:16:02;98494.00;;;18.27;100.00
73151;BME280;61354;50.758;6.106;2023-07-29T10:18:30;98491.88;;;18.34;100.00
73151;BME280;61354;50.758;6.106;2023-07-29T10:20:57;98494.56;;;18.42;100.00
73151;BME280;61354;50.758;6.106;2023-07-29T10:23:25;98492.00;;;18.51;100.00
73151;BME280;61354;50.758;6.106;2023-07-29T10:26:04;98490.72;;;18.55;100.00
73151;BME280;61354;50.758;6.106;2023-07-29T10:28:30;98496.59;;;18.64;100.00
73151;BME280;61354;50.758;6.106;2023-07-29T10:30:57;98494.63;;;18.61;100.00
73151;BME280;61354;50.758;6.106;2023-07-29T10:33:23;98486.06;;;18.69;100.00
73151;BME280;61354;50.758;6.106;2023-07-29T10:35:49;98482.03;;;18.93;100.00
73151;BME280;61354;50.758;6.106;2023-07-29T10:38:16;98492.44;;;18.96;100.00
73151;BME280;61354;50.758;6.106;2023-07-29T10:40:51;98483.28;;;18.92;100.00
73151;BME280;61354;50.758;6.106;2023-07-29T10:43:31;98479.25;;;19.13;100.00
73151;BME280;61354;50.758;6.106;2023-07-29T10:45:57;98490.75;;;19.42;100.00
73151;BME280;61354;50.758;6.106;2023-07-29T10:51:23;98486.66;;;19.67;100.00
73151;BME280;61354;50.758;6.106;2023-07-29T10:54:01;98475.00;;;19.65;100.00
73151;BME280;61354;50.758;6.106;2023-07-29T10:56:33;98473.28;;;19.71;100.00
73151;BME280;61354;50.758;6.106;2023-07-29T11:01:56;98469.09;;;19.79;100.00
73151;BME280;61354;50.758;6.106;2023-07-29T11:04:31;98471.00;;;19.82;100.00
73151;BME280;61354;50.758;6.106;2023-07-29T11:17:53;98470.09;;;20.05;100.00
73151;BME280;61354;50.758;6.106;2023-07-29T11:20:30;98471.56;;;19.93;100.00
73151;BME280;61354;50.758;6.106;2023-07-29T11:23:01;98461.91;;;20.10;100.00
73151;BME280;61354;50.758;6.106;2023-07-29T11:25:28;98456.81;;;20.22;100.00
73151;BME280;61354;50.758;6.106;2023-07-29T11:27:56;98466.69;;;20.30;100.00
73151;BME280;61354;50.758;6.106;2023-07-29T11:30:22;98458.06;;;20.37;100.00
73151;BME280;61354;50.758;6.106;2023-07-29T11:32:49;98454.06;;;20.34;100.00
73151;BME280;61354;50.758;6.106;2023-07-29T11:35:16;98458.06;;;20.37;100.00
73151;BME280;61354;50.758;6.106;2023-07-29T11:37:47;98455.31;;;20.33;100.00
73151;BME280;61354;50.758;6.106;2023-07-29T11:40:20;98453.28;;;20.34;100.00
73151;BME280;61354;50.758;6.106;2023-07-29T11:42:47;98454.69;;;20.42;100.00
73151;BME280;61354;50.758;6.106;2023-07-29T11:45:14;98445.25;;;20.65;100.00
73151;BME280;61354;50.758;6.106;2023-07-29T11:47:40;98441.91;;;20.70;100.00
73151;BME280;61354;50.758;6.106;2023-07-29T11:50:10;98438.31;;;20.70;100.00
73151;BME280;61354;50.758;6.106;2023-07-29T11:52:37;98434.06;;;20.78;100.00
73151;BME280;61354;50.758;6.106;2023-07-29T11:55:04;98434.00;;;20.94;100.00
73151;BME280;61354;50.758;6.106;2023-07-29T11:57:37;98425.69;;;21.03;100.00
73151;BME280;61354;50.758;6.106;2023-07-29T12:00:05;98421.72;;;21.01;100.00
73151;BME280;61354;50.758;6.106;2023-07-29T12:02:36;98426.59;;;21.00;100.00
73151;BME280;61354;50.758;6.106;2023-07-29T12:05:03;98431.41;;;20.87;98.10
73151;BME280;61354;50.758;6.106;2023-07-29T12:07:29;98412.00;;;20.73;97.59
73151;BME280;61354;50.758;6.106;2023-07-29T12:09:55;98407.56;;;20.59;99.88
73151;BME280;61354;50.758;6.106;2023-07-29T12:12:22;98402.09;;;20.52;100.00
73151;BME280;61354;50.758;6.106;2023-07-29T12:14:48;98409.41;;;20.33;98.97
73151;BME280;61354;50.758;6.106;2023-07-29T12:17:14;98405.88;;;20.29;100.00
73151;BME280;61354;50.758;6.106;2023-07-29T12:19:41;98412.56;;;20.19;100.00
73151;BME280;61354;50.758;6.106;2023-07-29T12:22:08;98403.06;;;20.13;100.00
73151;BME280;61354;50.758;6.106;2023-07-29T12:24:37;98409.81;;;19.99;100.00
73151;BME280;61354;50.758;6.106;2023-07-29T12:27:03;98415.22;;;19.93;100.00
73151;BME280;61354;50.758;6.106;2023-07-29T12:29:29;98416.97;;;19.87;100.00
73151;BME280;61354;50.758;6.106;2023-07-29T12:32:02;98424.72;;;19.83;100.00
73151;BME280;61354;50.758;6.106;2023-07-29T12:34:29;98437.38;;;19.75;100.00
73151;BME280;61354;50.758;6.106;2023-07-29T12:36:56;98431.09;;;19.67;100.00
73151;BME280;61354;50.758;6.106;2023-07-29T12:41:50;98455.72;;;19.43;100.00
73151;BME280;61354;50.758;6.106;2023-07-29T12:44:16;98468.16;;;19.26;100.00
73151;BME280;61354;50.758;6.106;2023-07-29T12:46:42;98477.44;;;18.83;100.00
73151;BME280;61354;50.758;6.106;2023-07-29T12:49:08;98464.84;;;18.41;100.00
73151;BME280;61354;50.758;6.106;2023-07-29T12:51:34;98463.56;;;18.22;100.00
73151;BME280;61354;50.758;6.106;2023-07-29T12:54:01;98465.53;;;18.25;100.00
73151;BME280;61354;50.758;6.106;2023-07-29T12:56:26;98467.75;;;18.10;100.00
73151;BME280;61354;50.758;6.106;2023-07-29T12:58:52;98464.75;;;17.97;100.00
73151;BME280;61354;50.758;6.106;2023-07-29T13:01:17;98458.16;;;18.07;100.00
73151;BME280;61354;50.758;6.106;2023-07-29T13:03:44;98456.09;;;18.11;100.00
73151;BME280;61354;50.758;6.106;2023-07-29T13:06:10;98453.03;;;18.02;100.00
73151;BME280;61354;50.758;6.106;2023-07-29T13:08:35;98453.03;;;18.02;100.00
73151;BME280;61354;50.758;6.106;2023-07-29T13:11:01;98462.19;;;18.06;100.00